Terminal Aerodrome Forecast
Issued by NWS

Home | Current Version | Previous Version | Text Only | Print | Product List | Glossary On
Versions: 1 2 3 4 5 6 7 8 9 10 11 12 13 14 15 16 17
000
FTAK31 PAJN 231700
TAFAGY
TAF
PAGY 231737Z 2318/2418 VRB03KT P6SM VCSH OVC020
     FM231900 03005KT P6SM SCT080
     FM240900 02010G18KT P6SM SCT150
     FM241400 02012G20KT P6SM SCT150
      AMD LTD TO CLD VIS AND WIND=

USA.gov is the U.S. government's official web portal to all federal, state and local government web resources and services.